KWWR/WWR METAR and TAF weather

Enter ICAO airport designator
Station Type Date Time Source
KWWR METAR 2019/06/27 04:15 UTC NOAA

KWWR 270415Z AUTO 16017G24KT 10SM CLR 26/16 A3009 RMK AO2


Station Type Date Time Source
KWWR Decoded METAR 2019/06/27 04:15 UTC NOAA

Woodward, West Woodward Airport, OK, United States (KWWR) 36-26-12N 099-31-16W 667M
Jun 27, 2019 - 12:15 AM EDT / 2019.06.27 0415 UTC
Wind: from the SSE (160 degrees) at 20 MPH (17 KT) gusting to 28 MPH (24 KT):0
Visibility: 10 mile(s):0
Sky conditions: clear
Temperature: 78 F (26 C)
Dew Point: 60 F (16 C)
Relative Humidity: 54%
Pressure (altimeter): 30.09 in. Hg (1018 hPa)
ob: KWWR 270415Z AUTO 16017G24KT 10SM CLR 26/16 A3009 RMK AO2
cycle: 4

Station Type Date Time Source
KWWR TAF 2019/06/26 18:40 UTC NOAA

TAF KWWR 261738Z 2618/2718 20012G18KT P6SM SCT040 SCT250
FM270000 16012KT P6SM BKN180 BKN280
FM271500 20015G20KT P6SM BKN280

Example: see airport list